Time;durP1;ratioP1;P1;durP2;ratioP2;P2;SDS_P1;SDS_P2;PMS_P1;PMS_P2;Temp;Humidity;BMP_temperature;BMP_pressure;BME280_temperature;BME280_humidity;BME280_pressure;Samples;Min_cycle;Max_cycle;Signal;HPM_P1;HPM_P2
2022/05/05 00:01:28;;;;;;;;;;;;;;;9.47;100.00;101696.44;5075232;28;19965;-73
2022/05/05 00:03:54;;;;;;;;;;;;;;;9.38;100.00;101694.22;5075444;28;20006;-73
2022/05/05 00:06:19;;;;;;;;;;;;;;;9.27;100.00;101688.38;5075745;28;19912;-73
2022/05/05 00:08:45;;;;;;;;;;;;;;;9.19;100.00;101668.66;5088553;28;20276;-72
2022/05/05 00:16:38;;;;;;;;;;;;;;;9.28;100.00;101650.75;5094017;28;20414;-72
2022/05/05 00:19:04;;;;;;;;;;;;;;;9.28;100.00;101652.50;5075579;28;19916;-76
2022/05/05 00:21:29;;;;;;;;;;;;;;;9.28;100.00;101650.75;5093941;28;19916;-76
2022/05/05 00:23:56;;;;;;;;;;;;;;;9.30;100.00;101653.47;5068952;28;20422;-74
2022/05/05 00:26:21;;;;;;;;;;;;;;;9.33;100.00;101659.78;5055960;28;19917;-76
2022/05/05 00:28:46;;;;;;;;;;;;;;;9.35;100.00;101662.50;5054932;28;19922;-74
2022/05/05 00:31:11;;;;;;;;;;;;;;;9.38;100.00;101664.41;5055751;28;19931;-74
2022/05/05 00:33:37;;;;;;;;;;;;;;;9.37;100.00;101676.66;5055437;28;20022;-73
2022/05/05 00:36:02;;;;;;;;;;;;;;;9.39;100.00;101682.00;5072965;28;19920;-76
2022/05/05 00:38:28;;;;;;;;;;;;;;;9.37;100.00;101679.28;5055855;28;19942;-74
2022/05/05 00:40:53;;;;;;;;;;;;;;;9.30;100.00;101678.03;5055103;28;20007;-75
2022/05/05 00:43:19;;;;;;;;;;;;;;;9.30;100.00;101677.13;5055208;28;19916;-76
2022/05/05 00:45:44;;;;;;;;;;;;;;;9.27;100.00;101675.22;5055542;28;20376;-74
2022/05/05 00:48:12;;;;;;;;;;;;;;;9.24;100.00;101669.81;5071073;28;20179;-77
2022/05/05 00:50:37;;;;;;;;;;;;;;;9.26;100.00;101668.19;5054806;28;19920;-75
2022/05/05 00:53:03;;;;;;;;;;;;;;;9.29;100.00;101673.59;5054786;28;19961;-76
2022/05/05 00:55:31;;;;;;;;;;;;;;;9.26;100.00;101675.16;5055573;28;19916;-76
2022/05/05 00:57:56;;;;;;;;;;;;;;;9.16;100.00;101681.63;5071600;28;19987;-75
2022/05/05 01:00:21;;;;;;;;;;;;;;;9.12;100.00;101672.69;5055036;28;19963;-76
2022/05/05 01:02:48;;;;;;;;;;;;;;;9.10;100.00;101668.16;5071268;28;19955;-73
2022/05/05 01:05:13;;;;;;;;;;;;;;;9.09;100.00;101662.00;5071697;28;19920;-76
2022/05/05 01:07:38;;;;;;;;;;;;;;;9.04;100.00;101659.94;5071865;28;19916;-75
2022/05/05 01:10:04;;;;;;;;;;;;;;;8.96;100.00;101649.00;5071387;28;19917;-76
2022/05/05 01:12:31;;;;;;;;;;;;;;;8.90;100.00;101640.78;5071658;28;19999;-75
2022/05/05 01:14:58;;;;;;;;;;;;;;;8.86;100.00;101638.81;5072742;28;19917;-74
2022/05/05 01:17:25;;;;;;;;;;;;;;;8.82;100.00;101621.97;5069684;28;19919;-74
2022/05/05 01:19:50;;;;;;;;;;;;;;;8.80;100.00;101611.38;5071428;28;19967;-75
2022/05/05 01:22:17;;;;;;;;;;;;;;;8.77;100.00;101599.81;5071303;28;19975;-74
2022/05/05 01:30:12;;;;;;;;;;;;;;;8.76;100.00;101567.41;5073120;28;20422;-73
2022/05/05 01:32:37;;;;;;;;;;;;;;;8.72;100.00;101564.53;5053936;28;19999;-75
2022/05/05 01:35:04;;;;;;;;;;;;;;;8.66;100.00;101558.94;5053713;28;20296;-74
2022/05/05 01:37:29;;;;;;;;;;;;;;;8.61;100.00;101537.69;5054070;28;19916;-75
2022/05/05 01:39:54;;;;;;;;;;;;;;;8.59;100.00;101542.84;5053256;28;19928;-74
2022/05/05 01:42:20;;;;;;;;;;;;;;;8.58;100.00;101535.78;5054135;28;19917;-74
2022/05/05 01:44:45;;;;;;;;;;;;;;;8.56;100.00;101532.19;5053681;28;20015;-73
2022/05/05 01:47:10;;;;;;;;;;;;;;;8.56;100.00;101533.88;5056932;28;19920;-73
2022/05/05 01:49:36;;;;;;;;;;;;;;;8.56;100.00;101542.69;5073919;28;19978;-73
2022/05/05 01:52:02;;;;;;;;;;;;;;;8.59;100.00;101541.94;5059742;28;20372;-73
2022/05/05 01:54:28;;;;;;;;;;;;;;;8.56;100.00;101555.81;5053510;28;19916;-73
2022/05/05 01:56:53;;;;;;;;;;;;;;;8.57;100.00;101559.31;5053360;28;20000;-74
2022/05/05 01:59:18;;;;;;;;;;;;;;;8.57;100.00;101560.22;5053179;28;19921;-73
2022/05/05 02:01:44;;;;;;;;;;;;;;;8.57;100.00;101557.59;5053466;28;19916;-73
2022/05/05 02:04:09;;;;;;;;;;;;;;;8.51;100.00;101559.88;5053181;28;19916;-73
2022/05/05 02:06:35;;;;;;;;;;;;;;;8.53;100.00;101576.63;5053479;28;19921;-73
2022/05/05 02:09:00;;;;;;;;;;;;;;;8.51;100.00;101578.25;5053676;28;19955;-73
2022/05/05 02:11:25;;;;;;;;;;;;;;;8.49;100.00;101587.78;5053065;28;20426;-74
2022/05/05 02:13:51;;;;;;;;;;;;;;;8.50;100.00;101588.66;5052677;28;19975;-73
2022/05/05 02:16:16;;;;;;;;;;;;;;;8.48;100.00;101591.19;5053733;28;19928;-74
2022/05/05 02:18:41;;;;;;;;;;;;;;;8.46;100.00;101590.22;5053410;28;19929;-74
2022/05/05 02:21:07;;;;;;;;;;;;;;;8.42;100.00;101591.75;5069964;28;19916;-75
2022/05/05 02:23:32;;;;;;;;;;;;;;;8.45;100.00;101585.78;5071091;28;19956;-77
2022/05/05 02:25:57;;;;;;;;;;;;;;;8.47;100.00;101588.50;5071214;28;19917;-76
2022/05/05 02:28:23;;;;;;;;;;;;;;;8.41;100.00;101579.44;5071010;28;19923;-78
2022/05/05 02:30:48;;;;;;;;;;;;;;;8.27;100.00;101565.53;5054353;28;19924;-76
2022/05/05 02:33:14;;;;;;;;;;;;;;;8.15;100.00;101559.59;5070866;28;19924;-76
2022/05/05 02:35:40;;;;;;;;;;;;;;;8.03;100.00;101532.66;5072785;28;19912;-76
2022/05/05 02:40:49;;;;;;;;;;;;;;;7.96;100.00;101472.81;5072332;28;19924;-76
2022/05/05 02:43:14;;;;;;;;;;;;;;;7.95;100.00;101436.91;5070798;28;20525;-75
2022/05/05 02:45:40;;;;;;;;;;;;;;;7.89;100.00;101406.91;5071130;28;20382;-77
2022/05/05 02:48:05;;;;;;;;;;;;;;;7.91;100.00;101372.91;5071657;28;19917;-75
2022/05/05 02:50:31;;;;;;;;;;;;;;;7.84;100.00;101334.03;5070731;28;19917;-77
2022/05/05 02:52:56;;;;;;;;;;;;;;;7.79;100.00;101304.94;5070552;28;19912;-77
2022/05/05 02:55:22;;;;;;;;;;;;;;;7.80;100.00;101256.03;5070490;28;20273;-74
2022/05/05 02:57:48;;;;;;;;;;;;;;;7.74;100.00;101225.16;5070736;28;19977;-74
2022/05/05 03:00:13;;;;;;;;;;;;;;;7.84;100.00;101190.72;5070658;28;19913;-74
2022/05/05 03:02:40;;;;;;;;;;;;;;;7.78;100.00;101158.94;5068834;28;19939;-75
2022/05/05 03:05:05;;;;;;;;;;;;;;;7.75;100.00;101115.94;5069451;28;20060;-74
2022/05/05 03:07:30;;;;;;;;;;;;;;;7.82;100.00;101055.16;5069937;28;19960;-73
2022/05/05 03:09:56;;;;;;;;;;;;;;;7.88;100.00;101003.91;5070257;28;19916;-75
2022/05/05 03:12:21;;;;;;;;;;;;;;;7.93;100.00;100970.06;5069749;28;19920;-74
2022/05/05 03:14:49;;;;;;;;;;;;;;;7.91;100.00;100951.63;5050652;28;20365;-74
2022/05/05 03:17:14;;;;;;;;;;;;;;;7.89;100.00;100931.38;5069725;28;19917;-73
2022/05/05 03:19:40;;;;;;;;;;;;;;;7.96;100.00;100888.91;5069834;28;20272;-73
2022/05/05 03:22:05;;;;;;;;;;;;;;;8.02;100.00;100848.97;5070398;28;19925;-74
2022/05/05 03:24:34;;;;;;;;;;;;;;;8.05;100.00;100796.66;5085340;28;20336;-75
2022/05/05 03:27:00;;;;;;;;;;;;;;;8.06;100.00;100772.22;5093435;28;19923;-76
2022/05/05 03:29:26;;;;;;;;;;;;;;;8.06;100.00;100740.75;5093388;28;19916;-75
2022/05/05 03:31:51;;;;;;;;;;;;;;;8.10;100.00;100719.09;5093343;28;19981;-74
2022/05/05 03:34:17;;;;;;;;;;;;;;;8.12;100.00;100695.53;5093359;28;19916;-74
2022/05/05 03:36:43;;;;;;;;;;;;;;;8.12;100.00;100672.81;5076696;28;19924;-74
2022/05/05 03:39:08;;;;;;;;;;;;;;;8.16;100.00;100645.03;5093005;28;19923;-73
2022/05/05 03:41:33;;;;;;;;;;;;;;;8.20;100.00;100632.09;5076522;28;20283;-73
2022/05/05 03:44:03;;;;;;;;;;;;;;;8.26;100.00;100624.50;5092818;28;20380;-76
2022/05/05 03:46:29;;;;;;;;;;;;;;;8.31;100.00;100616.78;5093911;28;19939;-77
2022/05/05 03:48:54;;;;;;;;;;;;;;;8.34;100.00;100623.91;5093286;28;19916;-75
2022/05/05 03:51:19;;;;;;;;;;;;;;;8.35;100.00;100633.56;5083878;28;19921;-73
2022/05/05 03:53:46;;;;;;;;;;;;;;;8.40;100.00;100632.91;5073041;28;20077;-74
2022/05/05 03:56:11;;;;;;;;;;;;;;;8.46;100.00;100641.91;5074633;28;19948;-74
2022/05/05 03:58:36;;;;;;;;;;;;;;;8.43;100.00;100653.13;5072701;28;19924;-75
2022/05/05 04:01:02;;;;;;;;;;;;;;;8.45;100.00;100664.63;5072597;28;19920;-78
2022/05/05 04:03:43;;;;;;;;;;;;;;;8.54;100.00;100682.47;5073051;28;19917;-76
2022/05/05 04:06:09;;;;;;;;;;;;;;;8.60;100.00;100693.25;5072441;28;19917;-76
2022/05/05 04:08:34;;;;;;;;;;;;;;;8.63;100.00;100710.00;5073093;28;19917;-76
2022/05/05 04:11:00;;;;;;;;;;;;;;;8.70;100.00;100723.38;5071906;28;19921;-75
2022/05/05 04:13:26;;;;;;;;;;;;;;;8.73;100.00;100744.50;5072779;28;19916;-76
2022/05/05 04:15:52;;;;;;;;;;;;;;;8.81;100.00;100761.50;5075193;28;19980;-76
2022/05/05 04:18:17;;;;;;;;;;;;;;;8.84;100.00;100779.09;5091904;28;19982;-76
2022/05/05 04:20:43;;;;;;;;;;;;;;;8.88;100.00;100808.16;5075438;28;20322;-75
2022/05/05 04:23:12;;;;;;;;;;;;;;;8.96;100.00;100805.88;5088939;28;19959;-75
2022/05/05 04:25:39;;;;;;;;;;;;;;;9.03;100.00;100814.91;5092974;28;19998;-78
2022/05/05 04:28:05;;;;;;;;;;;;;;;9.02;100.00;100839.38;5094109;28;20029;-77
2022/05/05 04:30:31;;;;;;;;;;;;;;;9.03;100.00;100863.09;5076010;28;19927;-78
2022/05/05 04:32:57;;;;;;;;;;;;;;;9.04;100.00;100891.13;5057698;28;19920;-78
2022/05/05 04:35:23;;;;;;;;;;;;;;;9.10;100.00;100915.03;5056141;28;19928;-77
2022/05/05 04:37:48;;;;;;;;;;;;;;;9.18;100.00;100948.63;5055783;28;19916;-79
2022/05/05 04:40:14;;;;;;;;;;;;;;;9.23;100.00;100987.41;5055692;28;19916;-81
2022/05/05 04:42:39;;;;;;;;;;;;;;;9.30;100.00;101018.38;5071903;28;20410;-79
2022/05/05 04:45:05;;;;;;;;;;;;;;;9.34;100.00;101064.09;5092361;28;19969;-78
2022/05/05 04:47:32;;;;;;;;;;;;;;;9.39;100.00;101104.63;5092753;28;19916;-76
2022/05/05 04:49:57;;;;;;;;;;;;;;;9.46;100.00;101135.63;5093182;28;19926;-77
2022/05/05 04:52:23;;;;;;;;;;;;;;;9.51;100.00;101170.88;5092870;28;19916;-73
2022/05/05 04:54:51;;;;;;;;;;;;;;;9.60;100.00;101198.41;5091313;28;19934;-77
2022/05/05 04:57:16;;;;;;;;;;;;;;;9.67;100.00;101226.81;5075440;28;19982;-76
2022/05/05 04:59:42;;;;;;;;;;;;;;;9.74;100.00;101260.44;5093209;28;19951;-74
2022/05/05 05:02:07;;;;;;;;;;;;;;;9.80;100.00;101291.38;5074588;28;19916;-74
2022/05/05 05:04:34;;;;;;;;;;;;;;;9.78;100.00;101314.97;5074937;28;20400;-75
2022/05/05 05:06:59;;;;;;;;;;;;;;;9.83;100.00;101336.22;5074107;28;19945;-73
2022/05/05 05:09:25;;;;;;;;;;;;;;;9.89;100.00;101352.28;5084592;28;19924;-76
2022/05/05 05:11:50;;;;;;;;;;;;;;;9.83;100.00;101362.53;5074278;28;19983;-78
2022/05/05 05:14:15;;;;;;;;;;;;;;;9.94;100.00;101387.59;5074238;28;19989;-76
2022/05/05 05:16:40;;;;;;;;;;;;;;;9.94;100.00;101400.75;5074555;28;19923;-75
2022/05/05 05:19:06;;;;;;;;;;;;;;;9.97;100.00;101416.69;5050151;28;19929;-75
2022/05/05 05:21:31;;;;;;;;;;;;;;;10.02;100.00;101414.28;5053375;28;19923;-73
2022/05/05 05:23:57;;;;;;;;;;;;;;;10.10;100.00;101433.06;5054106;28;20060;-73
2022/05/05 05:26:22;;;;;;;;;;;;;;;10.12;100.00;101441.94;5070500;28;19920;-74
2022/05/05 05:28:47;;;;;;;;;;;;;;;10.13;100.00;101464.78;5069976;28;19958;-78
2022/05/05 05:31:12;;;;;;;;;;;;;;;10.23;100.00;101467.03;5071652;28;20015;-74
2022/05/05 05:33:38;;;;;;;;;;;;;;;10.32;100.00;101480.63;5054196;28;20296;-75
2022/05/05 05:36:03;;;;;;;;;;;;;;;10.29;100.00;101488.38;5071280;28;19978;-73
2022/05/05 05:38:29;;;;;;;;;;;;;;;10.44;100.00;101500.47;5073591;28;19970;-76
2022/05/05 05:40:57;;;;;;;;;;;;;;;10.46;100.00;101506.75;5057090;28;19924;-72
2022/05/05 05:43:22;;;;;;;;;;;;;;;10.47;100.00;101516.44;5073736;28;19920;-79
2022/05/05 05:45:47;;;;;;;;;;;;;;;10.50;100.00;101530.66;5091727;28;19916;-74
2022/05/05 05:48:13;;;;;;;;;;;;;;;10.62;100.00;101535.59;5073589;28;19916;-74
2022/05/05 05:50:38;;;;;;;;;;;;;;;10.71;100.00;101551.81;5091022;28;20372;-74
2022/05/05 05:53:04;;;;;;;;;;;;;;;10.72;100.00;101561.53;5073667;28;20012;-73
2022/05/05 05:55:29;;;;;;;;;;;;;;;10.87;100.00;101576.25;5074076;28;19916;-73
2022/05/05 05:57:55;;;;;;;;;;;;;;;10.88;100.00;101586.84;5073132;28;19961;-74
2022/05/05 06:00:20;;;;;;;;;;;;;;;10.87;100.00;101586.78;5073750;28;19916;-74
2022/05/05 06:05:29;;;;;;;;;;;;;;;10.82;100.00;101601.47;5092044;28;20268;-78
2022/05/05 06:07:59;;;;;;;;;;;;;;;10.82;100.00;101604.13;5072988;28;19920;-76
2022/05/05 06:10:25;;;;;;;;;;;;;;;10.84;100.00;101610.34;5092193;28;19997;-74
2022/05/05 06:12:50;;;;;;;;;;;;;;;10.94;100.00;101607.31;5073134;28;19916;-79
2022/05/05 06:15:16;;;;;;;;;;;;;;;11.01;100.00;101616.41;5073749;28;19931;-74
2022/05/05 06:17:41;;;;;;;;;;;;;;;11.01;100.00;101625.19;5091268;28;19916;-77
2022/05/05 06:20:06;;;;;;;;;;;;;;;11.01;100.00;101625.19;5091301;28;20241;-75
2022/05/05 06:22:34;;;;;;;;;;;;;;;11.01;100.00;101635.75;5064772;28;19928;-75
2022/05/05 06:24:59;;;;;;;;;;;;;;;11.03;100.00;101634.09;5073150;28;19978;-78
2022/05/05 06:27:24;;;;;;;;;;;;;;;11.00;100.00;101633.97;5073312;28;20396;-77
2022/05/05 06:29:49;;;;;;;;;;;;;;;11.05;100.00;101642.97;5072793;28;19939;-73
2022/05/05 06:32:17;;;;;;;;;;;;;;;11.23;100.00;101649.94;5072869;28;19920;-74
2022/05/05 06:34:43;;;;;;;;;;;;;;;11.27;100.00;101652.78;5073693;28;20063;-75
2022/05/05 06:37:08;;;;;;;;;;;;;;;11.43;100.00;101657.00;5064028;28;19967;-78
2022/05/05 06:39:34;;;;;;;;;;;;;;;11.50;100.00;101679.31;5053240;28;19916;-74
2022/05/05 06:42:00;;;;;;;;;;;;;;;11.59;100.00;101694.63;5053063;28;19927;-76
2022/05/05 06:44:25;;;;;;;;;;;;;;;11.46;100.00;101709.88;5053448;28;20023;-76
2022/05/05 06:46:50;;;;;;;;;;;;;;;11.56;100.00;101710.31;5059708;28;20011;-75
2022/05/05 06:49:17;;;;;;;;;;;;;;;11.47;100.00;101711.72;5071105;28;20402;-75
2022/05/05 06:51:42;;;;;;;;;;;;;;;11.52;100.00;101721.56;5075798;28;19964;-74
2022/05/05 06:54:09;;;;;;;;;;;;;;;11.64;100.00;101722.13;5072540;28;19968;-77
2022/05/05 06:56:34;;;;;;;;;;;;;;;11.68;100.00;101721.44;5053444;28;19946;-74
2022/05/05 06:58:59;;;;;;;;;;;;;;;11.87;100.00;101720.53;5078269;28;19917;-76
2022/05/05 07:06:53;;;;;;;;;;;;;;;12.03;100.00;101745.91;5074306;28;19923;-77
2022/05/05 07:12:02;;;;;;;;;;;;;;;12.31;100.00;101755.03;5074538;28;19924;-74
2022/05/05 07:14:27;;;;;;;;;;;;;;;12.15;100.00;101757.00;5055672;28;19996;-76
2022/05/05 07:16:52;;;;;;;;;;;;;;;12.30;100.00;101761.16;5055811;28;19928;-74
2022/05/05 07:19:18;;;;;;;;;;;;;;;12.27;100.00;101761.00;5056400;28;19917;-77
2022/05/05 07:21:44;;;;;;;;;;;;;;;12.30;100.00;101767.31;5073911;28;19924;-75
2022/05/05 07:24:10;;;;;;;;;;;;;;;12.36;100.00;101769.34;5055688;28;19916;-77
2022/05/05 07:26:35;;;;;;;;;;;;;;;12.45;100.00;101768.84;5056525;28;19973;-75
2022/05/05 07:29:00;;;;;;;;;;;;;;;12.39;100.00;101777.41;5055110;28;20507;-75
2022/05/05 07:31:26;;;;;;;;;;;;;;;12.42;100.00;101772.25;5055325;28;19920;-75
2022/05/05 07:33:51;;;;;;;;;;;;;;;12.47;100.00;101770.69;5073363;28;20371;-77
2022/05/05 07:36:17;;;;;;;;;;;;;;;12.56;100.00;101779.00;5055487;28;20422;-75
2022/05/05 07:38:42;;;;;;;;;;;;;;;12.46;100.00;101783.84;5055803;28;19920;-73
2022/05/05 07:41:07;;;;;;;;;;;;;;;12.44;100.00;101775.84;5055427;28;19927;-74
2022/05/05 07:43:33;;;;;;;;;;;;;;;12.43;100.00;101763.50;5055033;28;19999;-72
2022/05/05 07:45:58;;;;;;;;;;;;;;;12.53;100.00;101760.38;5055260;28;19916;-73
2022/05/05 07:48:23;;;;;;;;;;;;;;;12.76;100.00;101760.47;5073322;28;19917;-74
2022/05/05 07:50:49;;;;;;;;;;;;;;;12.97;100.00;101763.06;5054899;28;20011;-75
2022/05/05 07:53:14;;;;;;;;;;;;;;;13.14;100.00;101776.97;5073122;28;20428;-74
2022/05/05 07:55:40;;;;;;;;;;;;;;;13.26;100.00;101784.50;5055581;28;19995;-74
2022/05/05 07:58:05;;;;;;;;;;;;;;;13.30;100.00;101802.31;5054732;28;19923;-75
2022/05/05 08:00:30;;;;;;;;;;;;;;;13.12;100.00;101818.34;5055070;28;19916;-75
2022/05/05 08:02:55;;;;;;;;;;;;;;;13.35;100.00;101818.41;5073130;28;19916;-74
2022/05/05 08:05:21;;;;;;;;;;;;;;;13.51;100.00;101831.38;5054355;28;20391;-75
2022/05/05 08:07:48;;;;;;;;;;;;;;;13.65;100.00;101848.69;5055559;28;20350;-75
2022/05/05 08:10:14;;;;;;;;;;;;;;;13.76;100.00;101882.66;5054692;28;19920;-75
2022/05/05 08:12:40;;;;;;;;;;;;;;;13.86;100.00;101898.06;5073066;28;19979;-75
2022/05/05 08:15:07;;;;;;;;;;;;;;;13.95;100.00;101910.72;5054752;28;19961;-75
2022/05/05 08:17:33;;;;;;;;;;;;;;;14.30;100.00;101932.41;5054471;28;19945;-75
2022/05/05 08:19:58;;;;;;;;;;;;;;;14.40;100.00;101946.88;5055325;28;19999;-75
2022/05/05 08:22:24;;;;;;;;;;;;;;;14.22;100.00;101957.69;5055119;28;19916;-75
2022/05/05 08:30:17;;;;;;;;;;;;;;;14.57;100.00;101992.56;5072208;28;20375;-73
2022/05/05 08:32:42;;;;;;;;;;;;;;;14.66;100.00;102012.41;5070881;28;19963;-77
2022/05/05 08:35:07;;;;;;;;;;;;;;;15.01;100.00;102018.13;5054342;28;19921;-75
2022/05/05 08:37:32;;;;;;;;;;;;;;;15.11;100.00;102031.72;5055151;28;19960;-76
2022/05/05 08:39:58;;;;;;;;;;;;;;;14.90;100.00;102033.66;5054061;28;19916;-76
2022/05/05 08:42:24;;;;;;;;;;;;;;;15.02;100.00;102042.91;5054736;28;20383;-74
2022/05/05 08:44:51;;;;;;;;;;;;;;;15.01;100.00;102047.31;5071849;28;19916;-75
2022/05/05 08:47:17;;;;;;;;;;;;;;;15.50;100.00;102063.19;5054457;28;20030;-76
2022/05/05 08:49:43;;;;;;;;;;;;;;;15.69;100.00;102070.94;5054729;28;20006;-74
2022/05/05 08:52:09;;;;;;;;;;;;;;;15.65;100.00;102084.97;5053870;28;20009;-75
2022/05/05 08:54:38;;;;;;;;;;;;;;;15.67;100.00;102083.25;5054063;28;19920;-76
2022/05/05 08:57:04;;;;;;;;;;;;;;;15.76;100.00;102093.31;5054393;28;19927;-76
2022/05/05 08:59:30;;;;;;;;;;;;;;;15.86;100.00;102095.44;5053932;28;20406;-74
2022/05/05 09:01:56;;;;;;;;;;;;;;;16.07;100.00;102100.59;5054042;28;20371;-74
2022/05/05 09:04:21;;;;;;;;;;;;;;;15.95;100.00;102113.44;5054039;28;19999;-77
2022/05/05 09:06:48;;;;;;;;;;;;;;;15.99;100.00;102112.72;5053776;28;19917;-75
2022/05/05 09:09:25;;;;;;;;;;;;;;;15.72;100.00;102113.53;5054269;28;20372;-76
2022/05/05 09:12:26;;;;;;;;;;;;;;;16.24;100.00;102116.19;5071993;28;19943;-74
2022/05/05 09:14:55;;;;;;;;;;;;;;;16.43;100.00;102123.91;5008619;28;19949;-75
2022/05/05 09:17:25;;;;;;;;;;;;;;;16.52;100.00;102140.16;5060392;28;19924;-73
2022/05/05 09:19:52;;;;;;;;;;;;;;;16.15;100.00;102138.03;5053743;28;20377;-75
2022/05/05 09:22:18;;;;;;;;;;;;;;;15.93;100.00;102139.97;5052713;28;19927;-74
2022/05/05 09:24:45;;;;;;;;;;;;;;;16.09;100.00;102130.75;5053689;28;19921;-74
2022/05/05 09:27:29;;;;;;;;;;;;;;;16.30;100.00;102143.88;5053530;28;19924;-74
2022/05/05 09:29:59;;;;;;;;;;;;;;;16.31;100.00;102147.41;5052872;28;19927;-75
2022/05/05 09:32:33;;;;;;;;;;;;;;;16.47;100.00;102148.84;5070657;28;20015;-75
2022/05/05 09:35:00;;;;;;;;;;;;;;;16.41;100.00;102149.53;5052753;28;20376;-75
2022/05/05 09:37:25;;;;;;;;;;;;;;;16.51;100.00;102153.38;5071189;28;19959;-74
2022/05/05 09:39:55;;;;;;;;;;;;;;;16.77;100.00;102158.66;5053118;28;19920;-76
2022/05/05 09:42:36;;;;;;;;;;;;;;;16.85;100.00;102162.44;5053445;28;20386;-75
2022/05/05 09:45:21;;;;;;;;;;;;;;;16.83;100.00;102162.41;5053051;28;19912;-77
2022/05/05 09:47:54;;;;;;;;;;;;;;;16.88;100.00;102162.56;5053009;28;19923;-75
2022/05/05 09:50:21;;;;;;;;;;;;;;;17.09;100.00;102175.63;5051362;28;19931;-74
2022/05/05 09:58:43;;;;;;;;;;;;;;;17.59;100.00;102181.53;5071128;28;19970;-74
2022/05/05 10:01:09;;;;;;;;;;;;;;;17.31;100.00;102178.91;5052969;28;19917;-74
2022/05/05 10:06:29;;;;;;;;;;;;;;;17.65;100.00;102180.81;5070758;28;20011;-74
2022/05/05 10:08:56;;;;;;;;;;;;;;;17.52;100.00;102179.53;5052778;28;19924;-73
2022/05/05 10:11:22;;;;;;;;;;;;;;;17.46;100.00;102183.78;5052693;28;19920;-73
2022/05/05 10:13:48;;;;;;;;;;;;;;;17.82;100.00;102183.94;5052325;28;19917;-73
2022/05/05 10:16:14;;;;;;;;;;;;;;;17.40;100.00;102179.19;5052968;28;20402;-74
2022/05/05 10:18:40;;;;;;;;;;;;;;;17.72;100.00;102182.75;5052300;28;19916;-74
2022/05/05 10:21:10;;;;;;;;;;;;;;;17.49;100.00;102179.44;5070630;28;20102;-73
2022/05/05 10:23:44;;;;;;;;;;;;;;;18.15;100.00;102199.06;5052781;28;19928;-74
2022/05/05 10:26:10;;;;;;;;;;;;;;;18.32;100.00;102195.91;5052671;28;19923;-74
2022/05/05 10:28:39;;;;;;;;;;;;;;;18.03;100.00;102206.72;5058544;28;19920;-74
2022/05/05 10:31:25;;;;;;;;;;;;;;;17.71;100.00;102190.72;5088329;28;19931;-75
2022/05/05 10:34:00;;;;;;;;;;;;;;;17.98;100.00;102203.94;5064322;28;20325;-73
2022/05/05 10:36:26;;;;;;;;;;;;;;;18.18;100.00;102204.47;5090971;28;20389;-77
2022/05/05 10:38:52;;;;;;;;;;;;;;;18.43;100.00;102207.78;5093686;28;20030;-73
2022/05/05 10:41:37;;;;;;;;;;;;;;;17.97;100.00;102199.47;5094239;28;20037;-73
2022/05/05 10:44:19;;;;;;;;;;;;;;;18.07;100.00;102192.59;5074296;28;19960;-73
2022/05/05 10:46:51;;;;;;;;;;;;;;;18.36;100.00;102193.34;5073194;28;20007;-73
2022/05/05 10:49:38;;;;;;;;;;;;;;;18.46;100.00;102207.84;5074918;28;19916;-73
2022/05/05 10:52:16;;;;;;;;;;;;;;;18.89;100.00;102213.34;5072982;28;19922;-74
2022/05/05 10:54:47;;;;;;;;;;;;;;;18.84;100.00;102215.88;5092185;28;19920;-73
2022/05/05 10:57:25;;;;;;;;;;;;;;;18.51;100.00;102214.19;5092792;28;20291;-74
2022/05/05 11:00:09;;;;;;;;;;;;;;;18.69;100.00;102210.16;5085762;28;19974;-73
2022/05/05 11:02:35;;;;;;;;;;;;;;;18.77;100.00;102222.84;5073482;28;19920;-74
2022/05/05 11:05:19;;;;;;;;;;;;;;;19.16;100.00;102221.97;5074123;28;19923;-73
2022/05/05 11:07:46;;;;;;;;;;;;;;;18.95;100.00;102219.72;5072036;28;19913;-73
2022/05/05 11:10:30;;;;;;;;;;;;;;;19.21;100.00;102226.53;5074338;28;19974;-73
2022/05/05 11:12:55;;;;;;;;;;;;;;;19.47;100.00;102214.63;5072591;28;19997;-73
2022/05/05 11:23:44;;;;;;;;;;;;;;;18.81;100.00;102206.00;5074102;28;19928;-75
2022/05/05 11:26:10;;;;;;;;;;;;;;;19.30;100.00;102214.28;5073793;28;19947;-74
2022/05/05 11:28:36;;;;;;;;;;;;;;;18.82;100.00;102221.16;5071389;28;20336;-74
2022/05/05 11:31:02;;;;;;;;;;;;;;;18.96;100.00;102213.53;5071910;28;19921;-74
2022/05/05 11:33:28;;;;;;;;;;;;;;;18.80;100.00;102219.34;5072568;28;20331;-73
2022/05/05 11:35:56;;;;;;;;;;;;;;;18.83;100.00;102224.72;5071872;28;19961;-74
2022/05/05 11:38:21;;;;;;;;;;;;;;;18.97;100.00;102223.34;5072895;28;20277;-74
2022/05/05 11:40:47;;;;;;;;;;;;;;;18.89;100.00;102230.25;5073556;28;19916;-77
2022/05/05 11:45:56;;;;;;;;;;;;;;;18.56;100.00;102227.66;5073214;28;20390;-78
2022/05/05 11:48:21;;;;;;;;;;;;;;;18.50;100.00;102220.38;5072671;28;19920;-78
2022/05/05 11:50:47;;;;;;;;;;;;;;;19.14;100.00;102222.81;5056374;28;20403;-75
2022/05/05 11:53:17;;;;;;;;;;;;;;;19.29;100.00;102222.25;5056320;28;20385;-76
2022/05/05 11:55:45;;;;;;;;;;;;;;;19.34;100.00;102225.91;5055970;28;19993;-78
2022/05/05 12:01:36;;;;;;;;;;;;;;;19.31;100.00;102225.84;5067285;28;19959;-73
2022/05/05 12:04:01;;;;;;;;;;;;;;;19.55;100.00;102236.16;5072567;28;20327;-74
2022/05/05 12:06:27;;;;;;;;;;;;;;;19.70;100.00;102235.56;5071733;28;19923;-73
2022/05/05 12:08:52;;;;;;;;;;;;;;;19.84;100.00;102233.22;5071024;28;19959;-73
2022/05/05 12:11:18;;;;;;;;;;;;;;;19.72;100.00;102239.19;5071440;28;19948;-73
2022/05/05 12:13:44;;;;;;;;;;;;;;;19.84;100.00;102234.13;5070864;28;19974;-74
2022/05/05 12:16:10;;;;;;;;;;;;;;;19.65;100.00;102231.91;5071297;28;19941;-74
2022/05/05 12:18:48;;;;;;;;;;;;;;;19.45;100.00;102229.75;5071534;28;19947;-74
2022/05/05 12:21:20;;;;;;;;;;;;;;;18.09;100.00;102220.22;5072800;28;20383;-72
2022/05/05 12:23:56;;;;;;;;;;;;;;;17.92;100.00;102210.00;5070987;28;19962;-73
2022/05/05 12:26:26;;;;;;;;;;;;;;;18.37;100.00;102210.28;5066858;28;19916;-74
2022/05/05 12:28:51;;;;;;;;;;;;;;;17.85;100.00;102213.34;5071376;28;19963;-76
2022/05/05 12:31:20;;;;;;;;;;;;;;;17.65;100.00;102204.78;5071814;28;19978;-73
2022/05/05 12:33:48;;;;;;;;;;;;;;;17.67;100.00;102204.81;5072761;28;19940;-75
2022/05/05 12:36:13;;;;;;;;;;;;;;;17.75;100.00;102208.59;5071400;28;19967;-73
2022/05/05 12:38:39;;;;;;;;;;;;;;;17.94;100.00;102215.38;5071125;28;19954;-75
2022/05/05 12:41:08;;;;;;;;;;;;;;;18.23;100.00;102213.47;5072426;28;20058;-74
2022/05/05 12:43:34;;;;;;;;;;;;;;;18.21;100.00;102219.63;5071138;28;20276;-78
2022/05/05 12:46:02;;;;;;;;;;;;;;;18.76;100.00;102213.00;5071971;28;19985;-75
2022/05/05 12:48:28;;;;;;;;;;;;;;;18.57;100.00;102217.00;5070802;28;19916;-75
2022/05/05 12:50:53;;;;;;;;;;;;;;;18.95;100.00;102233.06;5070551;28;20007;-75
2022/05/05 13:01:46;;;;;;;;;;;;;;;19.43;100.00;102230.56;5072385;28;19939;-75
2022/05/05 13:04:14;;;;;;;;;;;;;;;19.43;100.00;102242.16;5053980;28;19921;-75
2022/05/05 13:06:41;;;;;;;;;;;;;;;19.74;100.00;102245.47;5070294;28;19932;-75
2022/05/05 13:09:08;;;;;;;;;;;;;;;19.15;100.00;102245.97;5070566;28;19927;-74
2022/05/05 13:11:34;;;;;;;;;;;;;;;19.68;100.00;102235.53;5070152;28;19970;-74
2022/05/05 13:13:59;;;;;;;;;;;;;;;19.86;100.00;102242.19;5069568;28;19916;-74
2022/05/05 13:16:27;;;;;;;;;;;;;;;19.94;100.00;102245.91;5070612;28;20381;-73
2022/05/05 13:18:52;;;;;;;;;;;;;;;19.77;100.00;102239.31;5071417;28;20546;-73
2022/05/05 13:21:18;;;;;;;;;;;;;;;19.81;100.00;102238.50;5070206;28;19959;-74
2022/05/05 13:23:43;;;;;;;;;;;;;;;19.35;100.00;102222.38;5070167;28;19927;-75
2022/05/05 13:26:10;;;;;;;;;;;;;;;19.22;100.00;102215.88;5071002;28;20008;-75
2022/05/05 13:28:37;;;;;;;;;;;;;;;19.11;100.00;102217.41;5069598;28;19920;-74
2022/05/05 13:31:02;;;;;;;;;;;;;;;18.93;100.00;102216.13;5070339;28;19921;-78